Time;durP1;ratioP1;P1;durP2;ratioP2;P2;SDS_P1;SDS_P2;PMS_P1;PMS_P2;Temp;Humidity;BMP_temperature;BMP_pressure;BME280_temperature;BME280_humidity;BME280_pressure;Samples;Min_cycle;Max_cycle;Signal;HPM_P1;HPM_P2
2023/09/23 00:00:49;;;;;;;0.10;0.10;;;13.50;99.90;;;;;;5091010;28;20047;-79
2023/09/23 00:03:16;;;;;;;0.10;0.10;;;13.50;99.90;;;;;;5091747;28;20367;-79
2023/09/23 00:05:43;;;;;;;0.10;0.10;;;13.50;99.90;;;;;;5070142;28;20047;-79
2023/09/23 00:08:09;;;;;;;0.10;0.10;;;13.40;99.90;;;;;;5088398;28;20044;-79
2023/09/23 00:10:35;;;;;;;0.10;0.10;;;13.50;99.90;;;;;;5087237;28;20109;-79
2023/09/23 00:13:03;;;;;;;0.15;0.15;;;13.40;99.90;;;;;;5089649;28;20048;-79
2023/09/23 00:15:30;;;;;;;0.10;0.10;;;13.40;99.90;;;;;;5089690;28;20064;-79
2023/09/23 00:17:57;;;;;;;0.17;0.17;;;13.40;99.90;;;;;;5088987;28;20051;-80
2023/09/23 00:20:23;;;;;;;0.10;0.10;;;13.40;99.90;;;;;;5086401;28;20036;-79
2023/09/23 00:22:53;;;;;;;0.20;0.20;;;13.30;99.90;;;;;;5090990;28;20043;-79
2023/09/23 00:25:19;;;;;;;0.20;0.20;;;13.30;99.90;;;;;;5089863;28;20047;-79
2023/09/23 00:27:45;;;;;;;0.20;0.20;;;13.30;99.90;;;;;;5090436;28;20872;-79
2023/09/23 00:30:14;;;;;;;0.10;0.10;;;13.30;99.90;;;;;;5078794;28;20081;-79
2023/09/23 00:32:43;;;;;;;0.20;0.20;;;13.30;99.90;;;;;;5087575;28;20068;-79
2023/09/23 00:35:11;;;;;;;0.10;0.10;;;13.30;99.90;;;;;;5087625;28;20499;-79
2023/09/23 00:37:39;;;;;;;0.17;0.17;;;13.30;99.90;;;;;;5091076;28;20118;-79
2023/09/23 00:40:06;;;;;;;0.20;0.20;;;13.30;99.90;;;;;;5089523;28;20399;-79
2023/09/23 00:42:32;;;;;;;0.20;0.20;;;13.30;99.90;;;;;;5090741;28;20101;-79
2023/09/23 00:44:57;;;;;;;0.20;0.20;;;13.30;99.90;;;;;;5089318;28;20044;-79
2023/09/23 00:47:23;;;;;;;0.17;0.17;;;13.20;99.90;;;;;;5088795;28;20130;-80
2023/09/23 00:49:49;;;;;;;0.10;0.10;;;13.20;99.90;;;;;;5088491;28;20139;-79
2023/09/23 00:52:16;;;;;;;0.20;0.20;;;13.20;99.90;;;;;;5090163;28;20460;-79
2023/09/23 00:54:46;;;;;;;0.10;0.10;;;13.20;99.90;;;;;;5089654;28;20079;-79
2023/09/23 00:57:13;;;;;;;0.20;0.20;;;13.20;99.90;;;;;;5089988;28;20038;-79
2023/09/23 00:59:40;;;;;;;0.10;0.10;;;13.50;99.90;;;;;;5089562;28;20565;-79
2023/09/23 01:02:06;;;;;;;0.13;0.13;;;13.10;99.90;;;;;;5089709;28;20044;-79
2023/09/23 01:04:32;;;;;;;0.17;0.17;;;13.10;99.90;;;;;;5089982;28;20043;-79
2023/09/23 01:07:00;;;;;;;0.20;0.20;;;13.10;99.90;;;;;;5089402;28;20046;-80
2023/09/23 01:09:27;;;;;;;0.20;0.20;;;13.10;99.90;;;;;;5086316;28;20428;-79
2023/09/23 01:11:54;;;;;;;0.10;0.10;;;13.00;99.90;;;;;;5090107;28;20464;-80
2023/09/23 01:14:23;;;;;;;0.20;0.20;;;13.00;99.90;;;;;;5050718;28;1119559;-79
2023/09/23 01:16:51;;;;;;;0.10;0.10;;;13.00;99.90;;;;;;5089706;28;20056;-80
2023/09/23 01:19:17;;;;;;;0.13;0.13;;;13.00;99.90;;;;;;5090804;28;20263;-79
2023/09/23 01:21:43;;;;;;;0.20;0.20;;;12.90;99.90;;;;;;5088859;28;20163;-79
2023/09/23 01:24:08;;;;;;;0.10;0.10;;;13.00;99.90;;;;;;5089194;28;20167;-79
2023/09/23 01:26:34;;;;;;;0.10;0.10;;;12.90;99.90;;;;;;5087866;28;20564;-79
2023/09/23 01:29:00;;;;;;;0.20;0.20;;;12.90;99.90;;;;;;5089910;28;20126;-79
2023/09/23 01:31:29;;;;;;;0.10;0.10;;;12.90;99.90;;;;;;5077787;28;20404;-80
2023/09/23 01:33:56;;;;;;;0.10;0.10;;;12.80;99.90;;;;;;5089088;28;20093;-79
2023/09/23 01:36:22;;;;;;;0.20;0.20;;;12.90;99.90;;;;;;5087799;28;20340;-79
2023/09/23 01:38:51;;;;;;;0.10;0.10;;;12.90;99.90;;;;;;5078892;28;20106;-79
2023/09/23 01:41:17;;;;;;;0.10;0.10;;;12.90;99.90;;;;;;5082999;28;20044;-80
2023/09/23 01:43:42;;;;;;;0.20;0.20;;;12.90;99.90;;;;;;5089337;28;20052;-80
2023/09/23 01:46:08;;;;;;;0.10;0.10;;;12.90;99.90;;;;;;5089078;28;20054;-80
2023/09/23 01:48:33;;;;;;;0.10;0.10;;;12.90;99.90;;;;;;5090634;28;20534;-80
2023/09/23 01:50:59;;;;;;;0.10;0.10;;;12.80;99.90;;;;;;5088936;28;20074;-80
2023/09/23 01:53:26;;;;;;;0.20;0.20;;;12.80;99.90;;;;;;5090653;28;20569;-80
2023/09/23 01:55:52;;;;;;;0.20;0.20;;;12.80;99.90;;;;;;5089564;28;20132;-79
2023/09/23 01:58:18;;;;;;;0.20;0.20;;;12.80;99.90;;;;;;5089427;28;20051;-80
2023/09/23 02:00:44;;;;;;;0.20;0.20;;;12.70;99.90;;;;;;5088695;28;20415;-79
2023/09/23 02:03:10;;;;;;;0.20;0.20;;;12.70;99.90;;;;;;5090758;28;20153;-79
2023/09/23 02:05:36;;;;;;;0.10;0.10;;;12.70;99.90;;;;;;5088214;28;20063;-79
2023/09/23 02:08:02;;;;;;;0.20;0.20;;;12.70;99.90;;;;;;5090492;28;20050;-79
2023/09/23 02:10:28;;;;;;;0.20;0.20;;;12.70;99.90;;;;;;5082111;28;20042;-79
2023/09/23 02:12:54;;;;;;;0.17;0.17;;;12.60;99.90;;;;;;5087838;28;20032;-79
2023/09/23 02:15:20;;;;;;;0.15;0.15;;;12.60;99.90;;;;;;5087905;28;20143;-80
2023/09/23 02:17:47;;;;;;;0.20;0.20;;;12.60;99.90;;;;;;5088869;28;20499;-79
2023/09/23 02:20:21;;;;;;;0.15;0.15;;;12.60;99.90;;;;;;5090545;28;20422;-79
2023/09/23 02:22:48;;;;;;;0.13;0.13;;;12.60;99.90;;;;;;5069935;28;20056;-79
2023/09/23 02:25:14;;;;;;;0.13;0.13;;;12.60;99.90;;;;;;5068403;28;20071;-79
2023/09/23 02:27:41;;;;;;;0.20;0.20;;;12.50;99.90;;;;;;5069737;28;20044;-79
2023/09/23 02:30:11;;;;;;;0.20;0.20;;;12.50;99.90;;;;;;5068371;28;20515;-80
2023/09/23 02:32:41;;;;;;;0.10;0.10;;;12.50;99.90;;;;;;5084571;28;20051;-79
2023/09/23 02:35:11;;;;;;;0.10;0.10;;;12.50;99.90;;;;;;5088539;28;20092;-79
2023/09/23 02:37:41;;;;;;;0.13;0.13;;;12.50;99.90;;;;;;5089383;28;20040;-79
2023/09/23 02:40:12;;;;;;;0.15;0.15;;;12.50;99.90;;;;;;5087354;28;20036;-79
2023/09/23 02:42:42;;;;;;;0.13;0.13;;;12.50;99.90;;;;;;5086693;28;20166;-79
2023/09/23 02:45:13;;;;;;;0.20;0.20;;;12.50;99.90;;;;;;5086465;28;20379;-79
2023/09/23 02:47:41;;;;;;;;;;;12.50;99.90;;;;;;5088430;28;20044;-79
2023/09/23 02:50:09;;;;;;;0.15;0.15;;;12.40;99.90;;;;;;5087472;28;20035;-79
2023/09/23 02:52:44;;;;;;;0.10;0.10;;;12.40;99.90;;;;;;5087738;28;20464;-79
2023/09/23 02:55:19;;;;;;;0.20;0.20;;;12.40;99.90;;;;;;5088241;28;20040;-79
2023/09/23 02:57:48;;;;;;;0.15;0.15;;;12.40;99.90;;;;;;5089364;28;20048;-79
2023/09/23 03:00:19;;;;;;;0.13;0.13;;;12.40;99.90;;;;;;5087475;28;20072;-79
2023/09/23 03:02:48;;;;;;;0.20;0.20;;;12.40;99.90;;;;;;5089493;28;20624;-78
2023/09/23 03:05:17;;;;;;;0.20;0.20;;;12.40;99.90;;;;;;5087961;28;20832;-79
2023/09/23 03:07:50;;;;;;;0.20;0.20;;;12.40;99.90;;;;;;5088425;28;20044;-79
2023/09/23 03:10:19;;;;;;;0.10;0.10;;;12.30;99.90;;;;;;5088947;28;20048;-78
2023/09/23 03:12:56;;;;;;;0.10;0.10;;;12.30;99.90;;;;;;5082092;28;20589;-78
2023/09/23 03:15:33;;;;;;;0.20;0.20;;;12.40;99.90;;;;;;5086807;28;20048;-79
2023/09/23 03:18:00;;;;;;;0.20;0.20;;;12.30;99.90;;;;;;5089071;28;20047;-79
2023/09/23 03:20:26;;;;;;;0.10;0.10;;;12.30;99.90;;;;;;5087894;28;20093;-79
2023/09/23 03:22:53;;;;;;;0.10;0.10;;;12.40;99.90;;;;;;5088331;28;20051;-79
2023/09/23 03:25:20;;;;;;;0.10;0.10;;;12.40;99.90;;;;;;5088674;28;20053;-79
2023/09/23 03:27:52;;;;;;;0.10;0.10;;;12.30;99.90;;;;;;5085911;28;21658;-78
2023/09/23 03:30:19;;;;;;;0.13;0.13;;;12.30;99.90;;;;;;5066914;28;20091;-79
2023/09/23 03:32:45;;;;;;;0.10;0.10;;;12.30;99.90;;;;;;5068814;28;20083;-78
2023/09/23 03:35:20;;;;;;;0.10;0.10;;;12.30;99.90;;;;;;5067124;28;20421;-79
2023/09/23 03:37:50;;;;;;;0.10;0.10;;;12.30;99.90;;;;;;5088179;28;20048;-79
2023/09/23 03:40:20;;;;;;;0.10;0.10;;;12.30;99.90;;;;;;5087881;28;20056;-79
2023/09/23 03:42:48;;;;;;;0.10;0.10;;;12.20;99.90;;;;;;5088074;28;20040;-78
2023/09/23 03:45:15;;;;;;;0.20;0.20;;;12.20;99.90;;;;;;5088008;28;20545;-79
2023/09/23 03:47:40;;;;;;;0.10;0.10;;;12.20;99.90;;;;;;5088849;28;20044;-79
2023/09/23 03:50:07;;;;;;;0.10;0.10;;;12.20;99.90;;;;;;5087300;28;20399;-79
2023/09/23 03:52:33;;;;;;;0.10;0.10;;;12.20;99.90;;;;;;5089032;28;20040;-80
2023/09/23 03:54:59;;;;;;;0.20;0.20;;;12.20;99.90;;;;;;5086621;28;20093;-79
2023/09/23 03:57:25;;;;;;;0.10;0.10;;;12.20;99.90;;;;;;5086339;28;20040;-79
2023/09/23 03:59:50;;;;;;;0.20;0.20;;;12.10;99.90;;;;;;5086131;28;20050;-78
2023/09/23 04:02:16;;;;;;;0.15;0.15;;;12.10;99.90;;;;;;5088672;28;20040;-79
2023/09/23 04:04:42;;;;;;;0.10;0.10;;;12.10;99.90;;;;;;5085264;28;20044;-78
2023/09/23 04:07:08;;;;;;;0.10;0.10;;;12.10;99.90;;;;;;5087978;28;20380;-79
2023/09/23 04:09:34;;;;;;;0.10;0.10;;;12.10;99.90;;;;;;5090594;28;20051;-79
2023/09/23 04:12:00;;;;;;;0.15;0.15;;;12.10;99.90;;;;;;5088735;28;20074;-79
2023/09/23 04:14:27;;;;;;;0.10;0.10;;;12.10;99.90;;;;;;5089155;28;20058;-79
2023/09/23 04:16:53;;;;;;;0.20;0.20;;;12.10;99.90;;;;;;5089789;28;20059;-79
2023/09/23 04:19:19;;;;;;;0.10;0.10;;;12.10;99.90;;;;;;5088796;28;20462;-79
2023/09/23 04:21:45;;;;;;;0.20;0.20;;;12.10;99.90;;;;;;5089874;28;20139;-79
2023/09/23 04:24:10;;;;;;;0.10;0.10;;;12.10;99.90;;;;;;5092096;28;20085;-79
2023/09/23 04:26:36;;;;;;;0.10;0.10;;;12.00;99.90;;;;;;5091062;28;20044;-79
2023/09/23 04:29:01;;;;;;;0.10;0.10;;;12.10;99.90;;;;;;5073228;28;20445;-79
2023/09/23 04:31:28;;;;;;;0.10;0.10;;;12.00;99.90;;;;;;5083414;28;20612;-78
2023/09/23 04:33:53;;;;;;;0.10;0.10;;;12.00;99.90;;;;;;5090384;28;20044;-79
2023/09/23 04:36:21;;;;;;;0.17;0.17;;;12.00;99.90;;;;;;5090098;28;20495;-80
2023/09/23 04:38:48;;;;;;;0.20;0.20;;;12.00;99.90;;;;;;5082070;28;20457;-79
2023/09/23 04:41:13;;;;;;;0.10;0.10;;;12.00;99.90;;;;;;5089010;28;20101;-78
2023/09/23 04:43:41;;;;;;;0.10;0.10;;;12.00;99.90;;;;;;5091903;28;20044;-79
2023/09/23 04:46:14;;;;;;;0.10;0.10;;;12.00;99.90;;;;;;5106636;28;20455;-78
2023/09/23 04:48:41;;;;;;;0.15;0.15;;;12.00;99.90;;;;;;5091602;28;20036;-78
2023/09/23 04:51:08;;;;;;;0.10;0.10;;;12.00;99.90;;;;;;5090287;28;20053;-78
2023/09/23 04:53:34;;;;;;;0.10;0.10;;;12.00;99.90;;;;;;5090663;28;20036;-78
2023/09/23 04:56:06;;;;;;;0.15;0.15;;;12.10;99.90;;;;;;5091274;28;20467;-78
2023/09/23 04:58:32;;;;;;;0.10;0.10;;;12.00;99.90;;;;;;5091315;28;20124;-79
2023/09/23 05:00:59;;;;;;;0.10;0.10;;;12.00;99.90;;;;;;5082135;28;20033;-79
2023/09/23 05:03:24;;;;;;;0.20;0.20;;;12.00;99.90;;;;;;5074789;28;20055;-79
2023/09/23 05:05:50;;;;;;;0.10;0.10;;;12.10;99.90;;;;;;5088548;28;20044;-78
2023/09/23 05:08:16;;;;;;;0.10;0.10;;;12.00;99.90;;;;;;5087608;28;20375;-79
2023/09/23 05:10:42;;;;;;;0.10;0.10;;;12.00;99.90;;;;;;5089210;28;20046;-79
2023/09/23 05:13:29;;;;;;;0.17;0.17;;;11.90;99.90;;;;;;5082764;28;20040;-79
2023/09/23 05:15:55;;;;;;;0.17;0.17;;;11.90;99.90;;;;;;5085505;28;20176;-79
2023/09/23 05:18:21;;;;;;;0.20;0.20;;;11.90;99.90;;;;;;5089918;28;20051;-79
2023/09/23 05:20:47;;;;;;;0.10;0.10;;;11.90;99.90;;;;;;5085123;28;20032;-80
2023/09/23 05:23:14;;;;;;;0.10;0.10;;;11.90;99.90;;;;;;5072938;28;20115;-79
2023/09/23 05:25:41;;;;;;;0.13;0.13;;;11.90;99.90;;;;;;5090198;28;20121;-79
2023/09/23 05:28:08;;;;;;;0.10;0.10;;;11.80;99.90;;;;;;5090056;28;20044;-79
2023/09/23 05:30:34;;;;;;;0.10;0.10;;;11.90;99.90;;;;;;5089608;28;20044;-79
2023/09/23 05:32:59;;;;;;;0.30;0.30;;;11.90;99.90;;;;;;5075767;28;20094;-79
2023/09/23 05:35:27;;;;;;;0.10;0.10;;;11.80;99.90;;;;;;5088504;28;20087;-79
2023/09/23 05:37:53;;;;;;;0.20;0.20;;;11.80;99.90;;;;;;5090096;28;20032;-78
2023/09/23 05:42:48;;;;;;;0.10;0.10;;;11.80;99.90;;;;;;5087310;28;20391;-79
2023/09/23 05:45:15;;;;;;;0.20;0.20;;;11.80;99.90;;;;;;5087468;28;20123;-79
2023/09/23 05:47:41;;;;;;;0.15;0.15;;;11.80;99.90;;;;;;5082442;28;20102;-79
2023/09/23 05:50:08;;;;;;;0.17;0.17;;;11.80;99.90;;;;;;5088164;28;20123;-78
2023/09/23 05:52:35;;;;;;;0.10;0.10;;;11.80;99.90;;;;;;5090525;28;20044;-79
2023/09/23 05:55:01;;;;;;;0.10;0.10;;;11.70;99.90;;;;;;5089215;28;20514;-78
2023/09/23 05:57:26;;;;;;;0.20;0.20;;;11.90;99.90;;;;;;5089921;28;20082;-79
2023/09/23 05:59:52;;;;;;;0.10;0.10;;;11.70;99.90;;;;;;5089266;28;20055;-79
2023/09/23 06:02:18;;;;;;;0.20;0.20;;;11.70;99.90;;;;;;5086576;28;20044;-78
2023/09/23 06:04:44;;;;;;;0.20;0.20;;;11.70;99.90;;;;;;5069042;28;20059;-78
2023/09/23 06:07:10;;;;;;;0.10;0.10;;;11.70;99.90;;;;;;5089756;28;20040;-79
2023/09/23 06:09:35;;;;;;;0.10;0.10;;;11.70;99.90;;;;;;5089975;28;20189;-79
2023/09/23 06:12:01;;;;;;;0.10;0.10;;;11.90;99.90;;;;;;5088917;28;20051;-78
2023/09/23 06:14:27;;;;;;;0.10;0.10;;;11.70;99.90;;;;;;5082018;28;20059;-79
2023/09/23 06:16:52;;;;;;;0.20;0.20;;;11.70;99.90;;;;;;5082312;28;20047;-78
2023/09/23 06:19:18;;;;;;;0.10;0.10;;;11.70;99.90;;;;;;5080731;28;20053;-79
2023/09/23 06:21:44;;;;;;;0.10;0.10;;;11.70;99.90;;;;;;5074467;28;20070;-78
2023/09/23 06:24:10;;;;;;;0.10;0.10;;;11.70;99.90;;;;;;5082727;28;20090;-78
2023/09/23 06:26:37;;;;;;;0.10;0.10;;;11.80;99.90;;;;;;5088349;28;20055;-78
2023/09/23 06:29:04;;;;;;;0.10;0.10;;;11.80;99.90;;;;;;5084151;28;20122;-77
2023/09/23 06:31:30;;;;;;;0.10;0.10;;;11.80;99.90;;;;;;5082033;28;20119;-78
2023/09/23 06:33:56;;;;;;;0.10;0.10;;;11.80;99.90;;;;;;5086510;28;20040;-78
2023/09/23 06:36:22;;;;;;;0.20;0.20;;;11.90;99.90;;;;;;5089058;28;20032;-79
2023/09/23 06:38:47;;;;;;;0.10;0.10;;;11.90;99.90;;;;;;5088684;28;20055;-79
2023/09/23 06:41:13;;;;;;;0.10;0.10;;;11.90;99.90;;;;;;5089390;28;20044;-79
2023/09/23 06:43:40;;;;;;;0.20;0.20;;;11.90;99.90;;;;;;5089322;28;20098;-79
2023/09/23 06:46:05;;;;;;;0.20;0.20;;;11.90;99.90;;;;;;5087522;28;20087;-79
2023/09/23 06:48:31;;;;;;;0.30;0.25;;;12.00;99.90;;;;;;5089687;28;20752;-79
2023/09/23 06:50:58;;;;;;;0.10;0.10;;;12.10;99.90;;;;;;5088048;28;20101;-79
2023/09/23 06:53:27;;;;;;;0.10;0.10;;;12.00;99.90;;;;;;5089811;28;20040;-79
2023/09/23 06:55:53;;;;;;;0.10;0.10;;;12.10;99.90;;;;;;5086090;28;20374;-79
2023/09/23 06:58:19;;;;;;;0.10;0.10;;;12.20;99.90;;;;;;5088747;28;20123;-76
2023/09/23 07:00:45;;;;;;;0.10;0.10;;;12.20;99.90;;;;;;5067266;28;20053;-76
2023/09/23 07:03:11;;;;;;;0.10;0.10;;;12.30;99.90;;;;;;5073159;28;20155;-76
2023/09/23 07:05:37;;;;;;;0.30;0.30;;;12.30;99.90;;;;;;5088178;28;20501;-76
2023/09/23 07:08:03;;;;;;;0.10;0.10;;;12.40;99.90;;;;;;5088607;28;20407;-76
2023/09/23 07:10:32;;;;;;;0.30;0.30;;;12.40;99.90;;;;;;5084871;28;20048;-76
2023/09/23 07:12:58;;;;;;;0.10;0.10;;;12.40;99.90;;;;;;5105294;28;20028;-76
2023/09/23 07:15:24;;;;;;;0.20;0.20;;;12.50;99.90;;;;;;5076090;28;20415;-76
2023/09/23 07:17:49;;;;;;;0.10;0.10;;;12.50;99.90;;;;;;5087319;28;20521;-76
2023/09/23 07:20:15;;;;;;;0.20;0.20;;;12.50;99.90;;;;;;5081364;28;20044;-76
2023/09/23 07:22:41;;;;;;;0.15;0.15;;;12.50;99.90;;;;;;5089413;28;20192;-76
2023/09/23 07:25:07;;;;;;;0.10;0.10;;;12.60;99.90;;;;;;5088551;28;20040;-76
2023/09/23 07:27:32;;;;;;;0.10;0.10;;;12.60;99.90;;;;;;5086654;28;20040;-76
2023/09/23 07:29:58;;;;;;;0.20;0.20;;;12.60;99.90;;;;;;5088697;28;20048;-77
2023/09/23 07:32:23;;;;;;;0.10;0.10;;;12.60;99.90;;;;;;5088424;28;20032;-76
2023/09/23 07:34:49;;;;;;;0.10;0.10;;;12.70;99.90;;;;;;5087776;28;20086;-75
2023/09/23 07:37:15;;;;;;;0.20;0.20;;;12.70;99.90;;;;;;5088341;28;20041;-76
2023/09/23 07:39:40;;;;;;;0.10;0.10;;;12.70;99.90;;;;;;5087753;28;20059;-76
2023/09/23 07:42:06;;;;;;;0.10;0.10;;;12.80;99.90;;;;;;5085816;28;20123;-76
2023/09/23 07:44:32;;;;;;;0.20;0.20;;;12.90;99.90;;;;;;5091558;28;20121;-76
2023/09/23 07:46:57;;;;;;;0.15;0.15;;;12.90;99.90;;;;;;5091765;28;20142;-76
2023/09/23 07:49:23;;;;;;;0.10;0.10;;;12.90;99.90;;;;;;5091972;28;20048;-76
2023/09/23 07:51:49;;;;;;;0.10;0.10;;;12.90;99.90;;;;;;5091689;28;20040;-75
2023/09/23 07:54:15;;;;;;;0.10;0.10;;;12.90;99.90;;;;;;5089407;28;20047;-75
2023/09/23 07:56:40;;;;;;;0.10;0.10;;;13.00;99.90;;;;;;5084737;28;20040;-75
2023/09/23 07:59:06;;;;;;;0.10;0.10;;;13.00;99.90;;;;;;5091885;28;20044;-75
2023/09/23 08:01:32;;;;;;;0.10;0.10;;;13.10;99.90;;;;;;5091443;28;20062;-76
2023/09/23 08:03:57;;;;;;;0.10;0.10;;;13.20;99.90;;;;;;5091474;28;20032;-75
2023/09/23 08:06:23;;;;;;;0.20;0.20;;;13.30;99.90;;;;;;5090465;28;20506;-78
2023/09/23 08:08:49;;;;;;;0.10;0.10;;;13.40;99.90;;;;;;5092040;28;20028;-78
2023/09/23 08:11:14;;;;;;;0.20;0.20;;;13.50;99.90;;;;;;5089986;28;20046;-79
2023/09/23 08:13:40;;;;;;;0.17;0.17;;;13.70;99.90;;;;;;5092329;28;20491;-80
2023/09/23 08:16:06;;;;;;;0.20;0.20;;;13.80;99.90;;;;;;5081324;28;20058;-79
2023/09/23 08:18:31;;;;;;;0.20;0.20;;;13.90;99.90;;;;;;5088302;28;20056;-79
2023/09/23 08:21:01;;;;;;;0.10;0.10;;;14.00;99.90;;;;;;5091351;28;20348;-79
2023/09/23 08:23:27;;;;;;;0.10;0.10;;;14.10;99.90;;;;;;5089732;28;20447;-79
2023/09/23 08:25:56;;;;;;;0.20;0.20;;;14.10;99.90;;;;;;5089313;28;20036;-78
2023/09/23 08:28:22;;;;;;;0.10;0.10;;;14.10;99.90;;;;;;5089392;28;20129;-79
2023/09/23 08:30:50;;;;;;;0.10;0.10;;;14.20;99.90;;;;;;5090152;28;20064;-78
2023/09/23 08:33:16;;;;;;;0.10;0.10;;;14.20;99.90;;;;;;5092361;28;20036;-77
2023/09/23 08:35:47;;;;;;;0.10;0.10;;;14.20;99.90;;;;;;5090858;28;20044;-80
2023/09/23 08:38:13;;;;;;;0.10;0.10;;;14.20;99.90;;;;;;5090236;28;20044;-80
2023/09/23 08:40:39;;;;;;;0.20;0.20;;;14.30;99.90;;;;;;5089420;28;20071;-80
2023/09/23 08:43:05;;;;;;;0.20;0.20;;;14.30;99.90;;;;;;5071512;28;20099;-80
2023/09/23 08:45:32;;;;;;;0.10;0.10;;;14.30;99.90;;;;;;5088388;28;20559;-79
2023/09/23 08:47:58;;;;;;;0.10;0.10;;;14.30;99.90;;;;;;5112005;28;20069;-79
2023/09/23 08:50:25;;;;;;;0.20;0.20;;;14.30;99.90;;;;;;5104159;28;20044;-80
2023/09/23 08:52:51;;;;;;;0.20;0.20;;;14.30;99.90;;;;;;5090279;28;20130;-80
2023/09/23 08:55:19;;;;;;;0.10;0.10;;;14.30;99.90;;;;;;5088233;28;20532;-80
2023/09/23 08:57:45;;;;;;;0.10;0.10;;;14.40;99.90;;;;;;5090892;28;20048;-80
2023/09/23 09:00:13;;;;;;;0.10;0.10;;;14.50;99.90;;;;;;5088551;28;20057;-80
2023/09/23 09:02:39;;;;;;;0.10;0.10;;;14.60;99.90;;;;;;5092388;28;20487;-80
2023/09/23 09:05:05;;;;;;;0.10;0.10;;;14.60;99.90;;;;;;5091669;28;20093;-79
2023/09/23 09:07:35;;;;;;;0.10;0.10;;;14.70;99.90;;;;;;5090899;28;20040;-80
2023/09/23 09:10:02;;;;;;;0.20;0.20;;;14.70;99.90;;;;;;5088287;28;20048;-80
2023/09/23 09:12:28;;;;;;;0.10;0.10;;;14.70;99.90;;;;;;5091295;28;20067;-80
2023/09/23 09:14:55;;;;;;;0.88;0.43;;;14.80;99.90;;;;;;5083698;28;20048;-80
2023/09/23 09:17:21;;;;;;;0.13;0.13;;;14.90;99.90;;;;;;5077813;28;20082;-81
2023/09/23 09:19:47;;;;;;;0.20;0.20;;;14.90;99.90;;;;;;5085982;28;20407;-79
2023/09/23 09:22:19;;;;;;;0.10;0.10;;;15.00;99.90;;;;;;5089912;28;20369;-80
2023/09/23 09:24:46;;;;;;;0.10;0.10;;;15.10;99.90;;;;;;5090564;28;20522;-80
2023/09/23 09:27:15;;;;;;;0.10;0.10;;;15.10;99.90;;;;;;5080917;28;20083;-80
2023/09/23 09:29:42;;;;;;;0.17;0.17;;;15.20;99.90;;;;;;5074456;28;20040;-80
2023/09/23 09:32:12;;;;;;;0.20;0.20;;;15.30;99.90;;;;;;5086616;28;20040;-80
2023/09/23 09:34:46;;;;;;;0.20;0.20;;;15.40;99.90;;;;;;5088291;28;20032;-80
2023/09/23 09:37:15;;;;;;;0.20;0.20;;;15.50;99.90;;;;;;5085642;28;20473;-79
2023/09/23 09:39:55;;;;;;;0.10;0.10;;;15.60;99.90;;;;;;5087866;28;20040;-80
2023/09/23 09:42:30;;;;;;;0.10;0.10;;;15.80;99.90;;;;;;5083302;28;20114;-80
2023/09/23 09:44:57;;;;;;;0.10;0.10;;;15.90;99.90;;;;;;5083585;28;20048;-80
2023/09/23 09:47:23;;;;;;;0.10;0.10;;;15.90;99.90;;;;;;5090277;28;20055;-80
2023/09/23 09:49:54;;;;;;;0.20;0.20;;;16.30;99.90;;;;;;5087728;28;20127;-80
2023/09/23 09:52:24;;;;;;;0.10;0.10;;;16.00;99.90;;;;;;5089858;28;20063;-80
2023/09/23 09:54:59;;;;;;;0.20;0.20;;;16.10;99.90;;;;;;5089764;28;20056;-80
2023/09/23 09:57:29;;;;;;;0.15;0.15;;;16.10;99.90;;;;;;5090484;28;20048;-80
2023/09/23 09:59:59;;;;;;;0.20;0.20;;;16.10;99.90;;;;;;5089081;28;20499;-80
2023/09/23 10:02:25;;;;;;;0.10;0.10;;;16.10;99.90;;;;;;5089068;28;20403;-79
2023/09/23 10:04:51;;;;;;;0.20;0.20;;;16.20;99.90;;;;;;5089578;28;20043;-80
2023/09/23 10:07:17;;;;;;;0.15;0.15;;;16.20;99.90;;;;;;5088716;28;20058;-79
2023/09/23 10:09:58;;;;;;;0.20;0.20;;;16.20;99.90;;;;;;5088997;28;20036;-79
2023/09/23 10:12:25;;;;;;;0.10;0.10;;;16.20;99.90;;;;;;5071735;28;20074;-80
2023/09/23 10:14:58;;;;;;;0.10;0.10;;;16.30;99.90;;;;;;5089383;28;20522;-80
2023/09/23 10:17:31;;;;;;;0.10;0.10;;;16.30;99.90;;;;;;5084525;28;20113;-79
2023/09/23 10:19:58;;;;;;;0.10;0.10;;;16.50;99.90;;;;;;5073256;28;20123;-79
2023/09/23 10:22:27;;;;;;;0.10;0.10;;;16.40;99.90;;;;;;5068280;28;20048;-79
2023/09/23 10:25:04;;;;;;;0.10;0.10;;;16.40;99.90;;;;;;5081439;28;20572;-79
2023/09/23 10:27:30;;;;;;;0.20;0.20;;;16.40;99.90;;;;;;5087964;28;20067;-80
2023/09/23 10:29:57;;;;;;;0.10;0.10;;;16.40;99.90;;;;;;5089938;28;20051;-80
2023/09/23 10:32:23;;;;;;;0.10;0.10;;;16.40;99.90;;;;;;5088437;28;20032;-81
2023/09/23 10:34:52;;;;;;;0.20;0.20;;;16.30;99.90;;;;;;5088603;28;20080;-81
2023/09/23 10:37:31;;;;;;;0.10;0.10;;;16.20;99.90;;;;;;5088828;28;20055;-81
2023/09/23 10:40:13;;;;;;;0.10;0.10;;;16.10;99.90;;;;;;5089221;28;20083;-81
2023/09/23 10:42:44;;;;;;;0.10;0.10;;;16.10;99.90;;;;;;5089430;28;20487;-81
2023/09/23 10:45:12;;;;;;;0.20;0.20;;;16.10;99.90;;;;;;5087708;28;20361;-81
2023/09/23 10:47:38;;;;;;;0.20;0.20;;;16.10;99.90;;;;;;5090961;28;20444;-81
2023/09/23 10:50:05;;;;;;;0.10;0.10;;;16.10;99.90;;;;;;5089234;28;20127;-80
2023/09/23 10:52:31;;;;;;;0.20;0.20;;;16.00;99.90;;;;;;5088126;28;20044;-81
2023/09/23 10:54:57;;;;;;;0.20;0.20;;;15.90;99.90;;;;;;5088682;28;20800;-81
2023/09/23 10:57:24;;;;;;;0.10;0.10;;;15.90;99.90;;;;;;5088910;28;20115;-80
2023/09/23 10:59:54;;;;;;;0.20;0.20;;;15.80;99.90;;;;;;5086323;28;20113;-79
2023/09/23 11:02:20;;;;;;;0.17;0.17;;;15.80;99.90;;;;;;5089072;28;20464;-81
2023/09/23 11:04:48;;;;;;;0.20;0.20;;;15.80;99.90;;;;;;5068631;28;20041;-80
2023/09/23 11:07:15;;;;;;;0.10;0.10;;;15.90;99.90;;;;;;5078393;28;20083;-81
2023/09/23 11:09:45;;;;;;;0.10;0.10;;;15.90;99.90;;;;;;5086506;28;20051;-80
2023/09/23 11:12:15;;;;;;;0.10;0.10;;;16.00;99.90;;;;;;5079581;28;20147;-81
2023/09/23 11:14:48;;;;;;;0.20;0.20;;;15.90;99.90;;;;;;5083256;28;20083;-82
2023/09/23 11:17:29;;;;;;;0.20;0.20;;;15.90;99.90;;;;;;5090039;28;20059;-82
2023/09/23 11:19:59;;;;;;;0.20;0.20;;;15.80;99.90;;;;;;5081119;28;20037;-82
2023/09/23 11:22:26;;;;;;;0.10;0.10;;;15.70;99.90;;;;;;5092705;28;20511;-81
2023/09/23 11:24:53;;;;;;;0.10;0.10;;;15.70;99.90;;;;;;5092980;28;20048;-82
2023/09/23 11:27:20;;;;;;;0.10;0.10;;;15.70;99.90;;;;;;5089740;28;20036;-81
2023/09/23 11:29:46;;;;;;;0.10;0.10;;;15.70;99.90;;;;;;5093900;28;20032;-82
2023/09/23 11:32:12;;;;;;;0.13;0.13;;;15.70;99.90;;;;;;5092598;28;20092;-81
2023/09/23 11:34:37;;;;;;;0.10;0.10;;;15.70;99.90;;;;;;5093108;28;20522;-81
2023/09/23 11:37:04;;;;;;;0.10;0.10;;;15.70;99.90;;;;;;5092090;28;20074;-81
2023/09/23 11:39:35;;;;;;;0.10;0.10;;;15.70;99.90;;;;;;5093100;28;20055;-81
2023/09/23 11:42:02;;;;;;;0.10;0.10;;;15.70;99.90;;;;;;5089741;28;20062;-81
2023/09/23 11:44:28;;;;;;;0.10;0.10;;;15.70;99.90;;;;;;5093139;28;20051;-81
2023/09/23 11:46:54;;;;;;;0.20;0.20;;;15.80;99.90;;;;;;5092402;28;20085;-81
2023/09/23 11:49:20;;;;;;;0.20;0.20;;;15.80;99.90;;;;;;5093626;28;20048;-81
2023/09/23 11:51:46;;;;;;;0.20;0.20;;;15.80;99.90;;;;;;5091018;28;20047;-81
2023/09/23 11:54:12;;;;;;;0.17;0.17;;;15.80;99.90;;;;;;5090041;28;20435;-81
2023/09/23 11:56:37;;;;;;;0.20;0.20;;;15.80;99.90;;;;;;5092848;28;20139;-82
2023/09/23 11:59:03;;;;;;;0.13;0.13;;;15.70;99.90;;;;;;5092885;28;20040;-82
2023/09/23 12:01:29;;;;;;;0.17;0.17;;;15.70;99.90;;;;;;5091340;28;20566;-81
2023/09/23 12:03:58;;;;;;;0.20;0.20;;;15.70;99.90;;;;;;5090555;28;20028;-81
2023/09/23 12:06:34;;;;;;;0.10;0.10;;;15.70;99.90;;;;;;5071441;28;20059;-81
2023/09/23 12:09:02;;;;;;;0.20;0.20;;;15.70;99.90;;;;;;5077027;28;20032;-82
2023/09/23 12:11:28;;;;;;;0.10;0.10;;;15.60;99.90;;;;;;5092101;28;20067;-81
2023/09/23 12:13:54;;;;;;;0.10;0.10;;;15.60;99.90;;;;;;5093630;28;20142;-80
2023/09/23 12:16:20;;;;;;;0.10;0.10;;;15.70;99.90;;;;;;5090095;28;20043;-81
2023/09/23 12:18:48;;;;;;;0.10;0.10;;;15.70;99.90;;;;;;5089675;28;20480;-81
2023/09/23 12:21:16;;;;;;;0.10;0.10;;;15.80;99.90;;;;;;5090194;28;20040;-80
2023/09/23 12:23:42;;;;;;;0.10;0.10;;;15.90;99.90;;;;;;5090234;28;20431;-81
2023/09/23 12:26:11;;;;;;;0.10;0.10;;;16.00;99.90;;;;;;5092344;28;20071;-81
2023/09/23 12:28:37;;;;;;;0.13;0.13;;;16.00;99.90;;;;;;5091446;28;20047;-81
2023/09/23 12:31:03;;;;;;;0.10;0.10;;;16.20;99.90;;;;;;5091329;28;20127;-81
2023/09/23 12:33:29;;;;;;;0.10;0.10;;;16.30;99.90;;;;;;5093301;28;20067;-81
2023/09/23 12:35:55;;;;;;;0.20;0.20;;;16.50;99.90;;;;;;5089852;28;20060;-80
2023/09/23 12:38:20;;;;;;;0.10;0.10;;;16.70;99.90;;;;;;5089812;28;20511;-80
2023/09/23 12:40:46;;;;;;;0.10;0.10;;;16.80;99.90;;;;;;5090554;28;20055;-81
2023/09/23 12:43:12;;;;;;;0.10;0.10;;;17.00;99.90;;;;;;5090971;28;20043;-81
2023/09/23 12:45:40;;;;;;;0.20;0.20;;;17.10;99.90;;;;;;5088401;28;20043;-81
2023/09/23 12:48:09;;;;;;;0.20;0.20;;;17.30;99.90;;;;;;5093061;28;20110;-81
2023/09/23 12:50:35;;;;;;;0.20;0.20;;;17.60;99.90;;;;;;5092144;28;20052;-81